EZY66 BIKF-BGKK
Flight info
| Callsign | EZY66 |
|---|---|
| Flight time | N/A |
| Altitude | 38000 |
| Route | RALOV3A RALOV DCT SOSIT DCT SABAG |
| Aircraft | A20N/M-SDE2E3FGHIRWXY/LB1 |
Departure
| Time | 2026-05-07 15:24 |
|---|---|
| Airport | Keflavik International Airport (BIKF) |
Arrival
| Time | N/A |
|---|---|
| Airport | Kulusuk Airport (BGKK) |
| Time | Latitude | Longitude | Altitude | Speed | Heading |
|---|---|---|---|---|---|
| 2026-05-07 15:09 | 63.99242 | -22.62926 | 152 ft | 0 kts | 274° |
| 2026-05-07 15:12 | 63.99242 | -22.62928 | 152 ft | 0 kts | 274° |
| 2026-05-07 15:13 | 63.99242 | -22.62934 | 152 ft | 2 kts | 274° |
| 2026-05-07 15:13 | 63.99262 | -22.62957 | 152 ft | 4 kts | 353° |
| 2026-05-07 15:13 | 63.99289 | -22.62885 | 153 ft | 8 kts | 63° |
| 2026-05-07 15:13 | 63.99271 | -22.62751 | 155 ft | 12 kts | 140° |
| 2026-05-07 15:14 | 63.99188 | -22.62711 | 154 ft | 15 kts | 192° |
| 2026-05-07 15:14 | 63.99074 | -22.62752 | 151 ft | 19 kts | 191° |
| 2026-05-07 15:14 | 63.98927 | -22.62844 | 147 ft | 19 kts | 199° |
| 2026-05-07 15:14 | 63.98820 | -22.62932 | 145 ft | 15 kts | 199° |
| 2026-05-07 15:15 | 63.98692 | -22.63018 | 143 ft | 22 kts | 194° |
| 2026-05-07 15:15 | 63.98556 | -22.63096 | 143 ft | 7 kts | 194° |
| 2026-05-07 15:15 | 63.98485 | -22.63125 | 142 ft | 15 kts | 178° |
| 2026-05-07 15:15 | 63.98370 | -22.63048 | 142 ft | 20 kts | 163° |
| 2026-05-07 15:16 | 63.98324 | -22.63015 | 142 ft | 21 kts | 162° |
| 2026-05-07 15:16 | 63.97882 | -22.62672 | 149 ft | 30 kts | 159° |
| 2026-05-07 15:16 | 63.97701 | -22.62544 | 151 ft | 24 kts | 163° |
| 2026-05-07 15:17 | 63.97615 | -22.62284 | 152 ft | 22 kts | 100° |
| 2026-05-07 15:17 | 63.97577 | -22.61918 | 154 ft | 26 kts | 104° |
| 2026-05-07 15:17 | 63.97525 | -22.61482 | 155 ft | 31 kts | 105° |
| 2026-05-07 15:17 | 63.97469 | -22.61006 | 154 ft | 28 kts | 111° |
| 2026-05-07 15:18 | 63.97355 | -22.60949 | 153 ft | 18 kts | 180° |
| 2026-05-07 15:18 | 63.97217 | -22.60947 | 152 ft | 22 kts | 179° |
| 2026-05-07 15:18 | 63.97056 | -22.60946 | 150 ft | 24 kts | 180° |
| 2026-05-07 15:18 | 63.96877 | -22.60944 | 148 ft | 27 kts | 178° |
| 2026-05-07 15:19 | 63.96684 | -22.60945 | 147 ft | 29 kts | 179° |
| 2026-05-07 15:19 | 63.96501 | -22.60945 | 145 ft | 21 kts | 175° |
| 2026-05-07 15:19 | 63.96460 | -22.60843 | 144 ft | 9 kts | 109° |
| 2026-05-07 15:19 | 63.96462 | -22.60703 | 144 ft | 8 kts | 89° |
| 2026-05-07 15:20 | 63.96476 | -22.60558 | 144 ft | 9 kts | 37° |
| 2026-05-07 15:20 | 63.96521 | -22.60548 | 145 ft | 0 kts | 2° |
| 2026-05-07 15:21 | 63.96525 | -22.60548 | 145 ft | 2 kts | 1° |
| 2026-05-07 15:21 | 63.96562 | -22.60548 | 145 ft | 30 kts | 359° |
| 2026-05-07 15:23 | 63.96648 | -22.60543 | 146 ft | 57 kts | 0° |
| 2026-05-07 15:23 | 63.97333 | -22.60549 | 154 ft | 136 kts | 360° |
| 2026-05-07 15:23 | 63.98463 | -22.60533 | 271 ft | 187 kts | 360° |
| 2026-05-07 15:24 | 63.99884 | -22.60530 | 596 ft | 214 kts | 359° |
| 2026-05-07 15:24 | 64.01464 | -22.60594 | 947 ft | 237 kts | 357° |
| 2026-05-07 15:24 | 64.03158 | -22.60817 | 1370 ft | 251 kts | 354° |
| 2026-05-07 15:24 | 64.04916 | -22.61573 | 1930 ft | 268 kts | 341° |
| 2026-05-07 15:25 | 64.06632 | -22.63624 | 2491 ft | 291 kts | 319° |
| 2026-05-07 15:25 | 64.07823 | -22.67453 | 3206 ft | 306 kts | 290° |
| 2026-05-07 15:25 | 64.08181 | -22.72480 | 3240 ft | 344 kts | 267° |
| 2026-05-07 15:25 | 64.07567 | -22.78019 | 3205 ft | 367 kts | 248° |
| 2026-05-07 15:26 | 64.06832 | -22.81403 | 3201 ft | 354 kts | 236° |
| 2026-05-07 15:26 | 64.04347 | -22.85646 | 2910 ft | 333 kts | 197° |
| 2026-05-07 15:26 | 64.02097 | -22.86080 | 2719 ft | 319 kts | 177° |
| 2026-05-07 15:26 | 63.99989 | -22.84939 | 2483 ft | 307 kts | 159° |
| 2026-05-07 15:27 | 63.98045 | -22.83093 | 2258 ft | 296 kts | 158° |
| 2026-05-07 15:27 | 63.96274 | -22.80969 | 2403 ft | 280 kts | 137° |
| 2026-05-07 15:27 | 63.95286 | -22.77360 | 3123 ft | 253 kts | 103° |
| 2026-05-07 15:27 | 63.95191 | -22.73567 | 3145 ft | 242 kts | 89° |
| 2026-05-07 15:28 | 63.95275 | -22.69697 | 2469 ft | 248 kts | 84° |
| 2026-05-07 15:28 | 63.95524 | -22.65875 | 1837 ft | 236 kts | 78° |
| 2026-05-07 15:28 | 63.95835 | -22.62386 | 1399 ft | 215 kts | 78° |
| 2026-05-07 15:28 | 63.96137 | -22.59320 | 1260 ft | 181 kts | 76° |
| 2026-05-07 15:29 | 63.96329 | -22.57563 | 1207 ft | 171 kts | 75° |
| 2026-05-07 15:29 | 63.96914 | -22.54334 | 1092 ft | 165 kts | 34° |
| 2026-05-07 15:29 | 63.97984 | -22.53956 | 1034 ft | 162 kts | 334° |
| 2026-05-07 15:29 | 63.98604 | -22.55895 | 841 ft | 160 kts | 274° |
| 2026-05-07 15:30 | 63.98499 | -22.58462 | 304 ft | 162 kts | 268° |
| 2026-05-07 15:30 | 63.98509 | -22.60899 | 162 ft | 150 kts | 270° |
| 2026-05-07 15:30 | 63.98550 | -22.55072 | 1039 ft | 159 kts | 299° |
| 2026-05-07 15:30 | 63.98588 | -22.57417 | 611 ft | 155 kts | 253° |
| 2026-05-07 15:31 | 63.98496 | -22.59781 | 224 ft | 147 kts | 275° |
| 2026-05-07 15:31 | 63.98502 | -22.61939 | 156 ft | 123 kts | 270° |
| 2026-05-07 15:31 | 63.98607 | -22.55549 | 718 ft | 143 kts | 277° |
| 2026-05-07 15:31 | 63.98528 | -22.57710 | 460 ft | 134 kts | 263° |
| 2026-05-07 15:32 | 63.98500 | -22.59810 | 208 ft | 132 kts | 270° |
| 2026-05-07 15:32 | 63.98503 | -22.61846 | 157 ft | 128 kts | 270° |
| 2026-05-07 15:32 | 63.98513 | -22.57871 | 392 ft | 145 kts | 261° |
| 2026-05-07 15:32 | 63.98511 | -22.60270 | 204 ft | 147 kts | 271° |
| 2026-05-07 15:33 | 63.98508 | -22.62344 | 152 ft | 124 kts | 270° |